sensor_id;sensor_type;location;lat;lon;timestamp;temperature;humidity
66708;DHT22;53622;0.000;0.000;2022-10-03T00:05:38;22.30;64.40
66708;DHT22;53622;0.000;0.000;2022-10-03T00:08:17;22.30;64.50
66708;DHT22;53622;0.000;0.000;2022-10-03T00:11:02;22.30;64.50
66708;DHT22;53622;0.000;0.000;2022-10-03T00:13:42;22.30;64.40
66708;DHT22;53622;0.000;0.000;2022-10-03T00:16:19;22.30;64.40
66708;DHT22;53622;0.000;0.000;2022-10-03T00:18:56;22.30;64.40
66708;DHT22;53622;0.000;0.000;2022-10-03T00:21:38;22.30;64.40
66708;DHT22;53622;0.000;0.000;2022-10-03T00:24:20;22.30;64.40
66708;DHT22;53622;0.000;0.000;2022-10-03T00:26:54;22.30;64.40
66708;DHT22;53622;0.000;0.000;2022-10-03T00:29:43;22.30;64.40
66708;DHT22;53622;0.000;0.000;2022-10-03T00:32:26;22.30;64.30
66708;DHT22;53622;0.000;0.000;2022-10-03T00:35:10;22.30;64.40
66708;DHT22;53622;0.000;0.000;2022-10-03T00:37:46;22.30;64.40
66708;DHT22;53622;0.000;0.000;2022-10-03T00:40:59;22.30;64.40
66708;DHT22;53622;0.000;0.000;2022-10-03T00:44:04;22.20;64.30
66708;DHT22;53622;0.000;0.000;2022-10-03T00:47:12;22.20;64.30
66708;DHT22;53622;0.000;0.000;2022-10-03T00:50:02;22.20;64.30
66708;DHT22;53622;0.000;0.000;2022-10-03T00:52:50;22.20;64.40
66708;DHT22;53622;0.000;0.000;2022-10-03T00:55:31;22.20;64.30
66708;DHT22;53622;0.000;0.000;2022-10-03T00:58:19;22.20;64.40
66708;DHT22;53622;0.000;0.000;2022-10-03T01:00:57;22.20;64.30
66708;DHT22;53622;0.000;0.000;2022-10-03T01:03:41;22.20;64.30
66708;DHT22;53622;0.000;0.000;2022-10-03T01:06:22;22.20;64.20
66708;DHT22;53622;0.000;0.000;2022-10-03T01:09:07;22.20;64.20
66708;DHT22;53622;0.000;0.000;2022-10-03T01:11:53;22.20;64.20
66708;DHT22;53622;0.000;0.000;2022-10-03T01:17:31;22.20;64.30
66708;DHT22;53622;0.000;0.000;2022-10-03T01:20:29;22.20;64.30
66708;DHT22;53622;0.000;0.000;2022-10-03T01:23:24;22.20;64.30
66708;DHT22;53622;0.000;0.000;2022-10-03T01:26:10;22.20;64.30
66708;DHT22;53622;0.000;0.000;2022-10-03T01:28:50;22.20;64.30
66708;DHT22;53622;0.000;0.000;2022-10-03T01:31:43;22.20;64.30
66708;DHT22;53622;0.000;0.000;2022-10-03T01:34:21;22.20;64.30
66708;DHT22;53622;0.000;0.000;2022-10-03T01:37:02;22.20;64.20
66708;DHT22;53622;0.000;0.000;2022-10-03T01:39:39;22.20;64.20
66708;DHT22;53622;0.000;0.000;2022-10-03T01:42:15;22.20;64.20
66708;DHT22;53622;0.000;0.000;2022-10-03T01:45:02;22.20;64.20
66708;DHT22;53622;0.000;0.000;2022-10-03T01:47:41;22.20;64.20
66708;DHT22;53622;0.000;0.000;2022-10-03T01:50:22;22.20;64.10
66708;DHT22;53622;0.000;0.000;2022-10-03T01:52:57;22.10;64.10
66708;DHT22;53622;0.000;0.000;2022-10-03T01:55:38;22.20;64.20
66708;DHT22;53622;0.000;0.000;2022-10-03T01:58:12;22.20;64.10
66708;DHT22;53622;0.000;0.000;2022-10-03T02:00:54;22.20;64.20
66708;DHT22;53622;0.000;0.000;2022-10-03T02:03:27;22.20;64.10
66708;DHT22;53622;0.000;0.000;2022-10-03T02:06:07;22.20;64.20
66708;DHT22;53622;0.000;0.000;2022-10-03T02:08:51;22.10;64.10
66708;DHT22;53622;0.000;0.000;2022-10-03T02:11:30;22.20;64.20
66708;DHT22;53622;0.000;0.000;2022-10-03T02:14:12;22.20;64.10
66708;DHT22;53622;0.000;0.000;2022-10-03T02:16:53;22.10;64.10
66708;DHT22;53622;0.000;0.000;2022-10-03T02:19:26;22.10;64.10
66708;DHT22;53622;0.000;0.000;2022-10-03T02:21:58;22.10;64.10
66708;DHT22;53622;0.000;0.000;2022-10-03T02:24:42;22.10;64.10
66708;DHT22;53622;0.000;0.000;2022-10-03T02:27:36;22.10;64.10
66708;DHT22;53622;0.000;0.000;2022-10-03T02:30:18;22.10;64.10
66708;DHT22;53622;0.000;0.000;2022-10-03T02:33:26;22.10;64.20
66708;DHT22;53622;0.000;0.000;2022-10-03T02:48:34;22.10;64.20
66708;DHT22;53622;0.000;0.000;2022-10-03T02:57:48;22.10;64.20
66708;DHT22;53622;0.000;0.000;2022-10-03T03:00:34;22.10;64.20
66708;DHT22;53622;0.000;0.000;2022-10-03T03:03:41;22.10;64.20
66708;DHT22;53622;0.000;0.000;2022-10-03T03:09:45;22.10;64.80
66708;DHT22;53622;0.000;0.000;2022-10-03T03:18:48;22.10;64.70
66708;DHT22;53622;0.000;0.000;2022-10-03T03:21:28;22.00;64.60
66708;DHT22;53622;0.000;0.000;2022-10-03T03:24:18;22.00;64.50
66708;DHT22;53622;0.000;0.000;2022-10-03T03:27:07;22.10;64.40
66708;DHT22;53622;0.000;0.000;2022-10-03T03:29:46;22.10;64.40
66708;DHT22;53622;0.000;0.000;2022-10-03T03:32:27;22.00;64.40
66708;DHT22;53622;0.000;0.000;2022-10-03T03:35:05;22.10;65.10
66708;DHT22;53622;0.000;0.000;2022-10-03T03:37:47;22.00;64.30
66708;DHT22;53622;0.000;0.000;2022-10-03T03:40:29;22.00;64.20
66708;DHT22;53622;0.000;0.000;2022-10-03T03:43:18;22.00;64.30
66708;DHT22;53622;0.000;0.000;2022-10-03T03:46:07;22.10;64.30
66708;DHT22;53622;0.000;0.000;2022-10-03T03:49:02;22.00;64.30
66708;DHT22;53622;0.000;0.000;2022-10-03T03:51:41;22.00;64.20
66708;DHT22;53622;0.000;0.000;2022-10-03T03:54:44;22.00;64.20
66708;DHT22;53622;0.000;0.000;2022-10-03T03:57:42;22.00;64.20
66708;DHT22;53622;0.000;0.000;2022-10-03T04:00:15;22.00;64.30
66708;DHT22;53622;0.000;0.000;2022-10-03T04:03:01;22.00;64.30
66708;DHT22;53622;0.000;0.000;2022-10-03T04:05:48;22.00;64.30
66708;DHT22;53622;0.000;0.000;2022-10-03T04:08:37;22.00;64.20
66708;DHT22;53622;0.000;0.000;2022-10-03T04:11:18;22.00;64.30
66708;DHT22;53622;0.000;0.000;2022-10-03T04:14:13;22.00;64.30
66708;DHT22;53622;0.000;0.000;2022-10-03T04:17:11;22.00;64.20
66708;DHT22;53622;0.000;0.000;2022-10-03T04:20:17;22.00;64.30
66708;DHT22;53622;0.000;0.000;2022-10-03T04:23:06;22.00;64.30
66708;DHT22;53622;0.000;0.000;2022-10-03T04:26:07;22.00;64.30
66708;DHT22;53622;0.000;0.000;2022-10-03T04:28:53;22.00;64.30
66708;DHT22;53622;0.000;0.000;2022-10-03T04:31:38;22.00;64.30
66708;DHT22;53622;0.000;0.000;2022-10-03T04:34:22;22.00;64.40
66708;DHT22;53622;0.000;0.000;2022-10-03T04:37:03;22.00;64.40
66708;DHT22;53622;0.000;0.000;2022-10-03T04:39:43;22.00;64.30
66708;DHT22;53622;0.000;0.000;2022-10-03T04:42:26;22.00;64.30
66708;DHT22;53622;0.000;0.000;2022-10-03T04:45:18;22.00;64.30
66708;DHT22;53622;0.000;0.000;2022-10-03T04:48:03;22.00;64.30
66708;DHT22;53622;0.000;0.000;2022-10-03T04:50:39;22.00;64.30
66708;DHT22;53622;0.000;0.000;2022-10-03T04:53:20;22.00;64.30
66708;DHT22;53622;0.000;0.000;2022-10-03T04:55:59;22.00;64.30
66708;DHT22;53622;0.000;0.000;2022-10-03T04:58:35;22.00;64.30
66708;DHT22;53622;0.000;0.000;2022-10-03T05:01:13;22.00;64.20
66708;DHT22;53622;0.000;0.000;2022-10-03T05:03:52;22.00;64.20
66708;DHT22;53622;0.000;0.000;2022-10-03T05:06:35;22.00;64.30
66708;DHT22;53622;0.000;0.000;2022-10-03T05:09:20;22.00;64.30
66708;DHT22;53622;0.000;0.000;2022-10-03T05:11:58;21.90;64.20
66708;DHT22;53622;0.000;0.000;2022-10-03T05:14:57;21.90;64.20
66708;DHT22;53622;0.000;0.000;2022-10-03T05:17:40;21.90;64.20
66708;DHT22;53622;0.000;0.000;2022-10-03T05:20:19;21.90;64.30
66708;DHT22;53622;0.000;0.000;2022-10-03T05:22:57;21.90;64.50
66708;DHT22;53622;0.000;0.000;2022-10-03T05:25:51;21.90;64.70
66708;DHT22;53622;0.000;0.000;2022-10-03T05:28:31;21.90;64.70
66708;DHT22;53622;0.000;0.000;2022-10-03T05:31:16;21.90;64.80
66708;DHT22;53622;0.000;0.000;2022-10-03T05:33:57;21.90;65.30
66708;DHT22;53622;0.000;0.000;2022-10-03T05:36:34;22.00;65.30
66708;DHT22;53622;0.000;0.000;2022-10-03T05:39:36;22.00;65.30
66708;DHT22;53622;0.000;0.000;2022-10-03T05:45:24;22.20;67.90
66708;DHT22;53622;0.000;0.000;2022-10-03T05:48:11;22.20;68.70
66708;DHT22;53622;0.000;0.000;2022-10-03T05:51:06;22.30;68.40
66708;DHT22;53622;0.000;0.000;2022-10-03T05:54:07;22.30;68.30
66708;DHT22;53622;0.000;0.000;2022-10-03T05:57:10;22.40;68.20
66708;DHT22;53622;0.000;0.000;2022-10-03T06:00:00;22.40;68.30
66708;DHT22;53622;0.000;0.000;2022-10-03T06:05:43;22.50;68.30
66708;DHT22;53622;0.000;0.000;2022-10-03T06:08:45;22.50;67.90
66708;DHT22;53622;0.000;0.000;2022-10-03T06:11:33;22.60;67.80
66708;DHT22;53622;0.000;0.000;2022-10-03T06:14:28;22.60;67.60
66708;DHT22;53622;0.000;0.000;2022-10-03T06:17:27;22.60;67.60
66708;DHT22;53622;0.000;0.000;2022-10-03T06:20:13;22.70;67.50
66708;DHT22;53622;0.000;0.000;2022-10-03T06:23:10;22.70;67.40
66708;DHT22;53622;0.000;0.000;2022-10-03T06:35:59;22.80;67.00
66708;DHT22;53622;0.000;0.000;2022-10-03T06:45:22;22.80;67.10
66708;DHT22;53622;0.000;0.000;2022-10-03T06:48:16;22.90;66.90
66708;DHT22;53622;0.000;0.000;2022-10-03T06:50:53;22.90;66.80
66708;DHT22;53622;0.000;0.000;2022-10-03T06:57:00;22.90;66.80
66708;DHT22;53622;0.000;0.000;2022-10-03T06:59:48;23.00;67.30
66708;DHT22;53622;0.000;0.000;2022-10-03T07:02:47;22.90;67.20
66708;DHT22;53622;0.000;0.000;2022-10-03T07:06:08;22.90;67.70
66708;DHT22;53622;0.000;0.000;2022-10-03T07:12:00;23.00;68.60
66708;DHT22;53622;0.000;0.000;2022-10-03T07:15:01;23.00;68.70
66708;DHT22;53622;0.000;0.000;2022-10-03T07:17:49;23.00;67.90
66708;DHT22;53622;0.000;0.000;2022-10-03T07:23:56;23.00;67.70
66708;DHT22;53622;0.000;0.000;2022-10-03T07:26:50;23.00;67.60
66708;DHT22;53622;0.000;0.000;2022-10-03T07:29:32;23.00;67.50
66708;DHT22;53622;0.000;0.000;2022-10-03T07:32:26;23.00;67.10
66708;DHT22;53622;0.000;0.000;2022-10-03T07:35:24;23.00;66.90
66708;DHT22;53622;0.000;0.000;2022-10-03T07:38:54;23.00;66.80
66708;DHT22;53622;0.000;0.000;2022-10-03T07:41:41;23.10;66.90
66708;DHT22;53622;0.000;0.000;2022-10-03T07:51:11;23.10;66.50
66708;DHT22;53622;0.000;0.000;2022-10-03T07:57:32;23.10;66.90
66708;DHT22;53622;0.000;0.000;2022-10-03T08:00:16;23.10;66.90
66708;DHT22;53622;0.000;0.000;2022-10-03T08:03:40;23.10;67.20
66708;DHT22;53622;0.000;0.000;2022-10-03T08:06:23;23.10;67.70
66708;DHT22;53622;0.000;0.000;2022-10-03T08:09:26;23.10;68.50
66708;DHT22;53622;0.000;0.000;2022-10-03T08:15:21;23.10;69.30
66708;DHT22;53622;0.000;0.000;2022-10-03T08:20:54;23.20;69.80
66708;DHT22;53622;0.000;0.000;2022-10-03T08:24:00;23.20;70.30
66708;DHT22;53622;0.000;0.000;2022-10-03T08:26:58;23.30;70.30
66708;DHT22;53622;0.000;0.000;2022-10-03T08:39:10;23.30;69.60
66708;DHT22;53622;0.000;0.000;2022-10-03T08:42:24;23.20;69.60
66708;DHT22;53622;0.000;0.000;2022-10-03T08:45:53;23.20;69.60
66708;DHT22;53622;0.000;0.000;2022-10-03T08:48:57;23.20;69.60
66708;DHT22;53622;0.000;0.000;2022-10-03T08:51:55;23.20;69.50
66708;DHT22;53622;0.000;0.000;2022-10-03T08:54:49;23.20;69.50
66708;DHT22;53622;0.000;0.000;2022-10-03T09:00:48;23.20;69.50
66708;DHT22;53622;0.000;0.000;2022-10-03T09:07:11;23.30;69.10
66708;DHT22;53622;0.000;0.000;2022-10-03T09:22:58;23.20;68.70
66708;DHT22;53622;0.000;0.000;2022-10-03T09:25:43;23.30;68.70
66708;DHT22;53622;0.000;0.000;2022-10-03T09:28:46;23.20;68.70
66708;DHT22;53622;0.000;0.000;2022-10-03T09:34:45;23.10;68.50
66708;DHT22;53622;0.000;0.000;2022-10-03T09:41:06;23.20;68.50
66708;DHT22;53622;0.000;0.000;2022-10-03T09:47:06;23.10;68.40
66708;DHT22;53622;0.000;0.000;2022-10-03T09:53:44;23.10;68.20
66708;DHT22;53622;0.000;0.000;2022-10-03T09:56:56;23.10;69.00
66708;DHT22;53622;0.000;0.000;2022-10-03T10:08:41;23.00;68.40
66708;DHT22;53622;0.000;0.000;2022-10-03T10:11:25;23.00;68.40
66708;DHT22;53622;0.000;0.000;2022-10-03T10:24:00;23.10;68.30
66708;DHT22;53622;0.000;0.000;2022-10-03T10:26:57;23.10;68.70
66708;DHT22;53622;0.000;0.000;2022-10-03T10:29:54;23.20;69.90
66708;DHT22;53622;0.000;0.000;2022-10-03T10:33:15;23.20;69.70
66708;DHT22;53622;0.000;0.000;2022-10-03T10:36:45;23.30;69.60
66708;DHT22;53622;0.000;0.000;2022-10-03T10:45:51;23.30;69.00
66708;DHT22;53622;0.000;0.000;2022-10-03T10:49:30;23.40;69.00
66708;DHT22;53622;0.000;0.000;2022-10-03T10:52:41;23.40;68.80
66708;DHT22;53622;0.000;0.000;2022-10-03T10:59:09;23.40;69.00
66708;DHT22;53622;0.000;0.000;2022-10-03T11:11:50;23.50;68.70
66708;DHT22;53622;0.000;0.000;2022-10-03T11:18:23;23.50;68.70
66708;DHT22;53622;0.000;0.000;2022-10-03T11:24:52;23.50;68.70
66708;DHT22;53622;0.000;0.000;2022-10-03T11:37:19;23.60;68.20
66708;DHT22;53622;0.000;0.000;2022-10-03T11:40:03;23.60;68.00
66708;DHT22;53622;0.000;0.000;2022-10-03T11:42:52;23.70;67.90
66708;DHT22;53622;0.000;0.000;2022-10-03T11:45:29;23.70;67.60
66708;DHT22;53622;0.000;0.000;2022-10-03T11:48:16;23.70;67.50
66708;DHT22;53622;0.000;0.000;2022-10-03T11:50:53;23.70;67.40
66708;DHT22;53622;0.000;0.000;2022-10-03T11:53:41;23.70;67.40
66708;DHT22;53622;0.000;0.000;2022-10-03T11:56:30;23.70;67.20
66708;DHT22;53622;0.000;0.000;2022-10-03T11:59:16;23.70;67.20
66708;DHT22;53622;0.000;0.000;2022-10-03T12:02:06;23.70;67.10
66708;DHT22;53622;0.000;0.000;2022-10-03T12:04:45;23.70;67.10
66708;DHT22;53622;0.000;0.000;2022-10-03T12:07:26;23.60;67.00
66708;DHT22;53622;0.000;0.000;2022-10-03T12:10:32;23.60;67.00
66708;DHT22;53622;0.000;0.000;2022-10-03T12:13:11;23.60;66.90
66708;DHT22;53622;0.000;0.000;2022-10-03T12:15:46;23.60;66.90
66708;DHT22;53622;0.000;0.000;2022-10-03T12:18:24;23.60;66.80
66708;DHT22;53622;0.000;0.000;2022-10-03T12:21:05;23.60;66.70
66708;DHT22;53622;0.000;0.000;2022-10-03T12:24:03;23.60;66.80
66708;DHT22;53622;0.000;0.000;2022-10-03T12:26:44;23.60;66.70
66708;DHT22;53622;0.000;0.000;2022-10-03T12:29:19;23.60;66.70
66708;DHT22;53622;0.000;0.000;2022-10-03T12:31:59;23.60;66.80
66708;DHT22;53622;0.000;0.000;2022-10-03T12:34:36;23.60;66.80
66708;DHT22;53622;0.000;0.000;2022-10-03T12:40:16;23.60;66.90
66708;DHT22;53622;0.000;0.000;2022-10-03T12:42:58;23.50;66.70
66708;DHT22;53622;0.000;0.000;2022-10-03T12:45:35;23.50;66.80
66708;DHT22;53622;0.000;0.000;2022-10-03T12:48:21;23.50;66.80
66708;DHT22;53622;0.000;0.000;2022-10-03T12:50:57;23.50;66.80
66708;DHT22;53622;0.000;0.000;2022-10-03T12:53:34;23.50;66.80
66708;DHT22;53622;0.000;0.000;2022-10-03T12:56:16;23.50;66.80
66708;DHT22;53622;0.000;0.000;2022-10-03T12:58:55;23.50;66.70
66708;DHT22;53622;0.000;0.000;2022-10-03T13:01:45;23.50;66.60
66708;DHT22;53622;0.000;0.000;2022-10-03T13:04:28;23.50;66.60
66708;DHT22;53622;0.000;0.000;2022-10-03T13:07:16;23.50;66.70
66708;DHT22;53622;0.000;0.000;2022-10-03T13:10:02;23.40;66.70
66708;DHT22;53622;0.000;0.000;2022-10-03T13:12:38;23.40;66.70
66708;DHT22;53622;0.000;0.000;2022-10-03T13:15:46;23.40;66.80
66708;DHT22;53622;0.000;0.000;2022-10-03T13:18:45;23.40;66.70
66708;DHT22;53622;0.000;0.000;2022-10-03T13:21:22;23.40;66.80
66708;DHT22;53622;0.000;0.000;2022-10-03T13:24:24;23.40;66.80
66708;DHT22;53622;0.000;0.000;2022-10-03T13:27:03;23.40;66.80
66708;DHT22;53622;0.000;0.000;2022-10-03T13:29:35;23.40;66.80
66708;DHT22;53622;0.000;0.000;2022-10-03T13:32:17;23.40;66.70
66708;DHT22;53622;0.000;0.000;2022-10-03T13:35:03;23.40;66.70
66708;DHT22;53622;0.000;0.000;2022-10-03T13:41:11;23.40;66.70
66708;DHT22;53622;0.000;0.000;2022-10-03T13:43:46;23.40;66.70
66708;DHT22;53622;0.000;0.000;2022-10-03T13:46:22;23.40;66.70
66708;DHT22;53622;0.000;0.000;2022-10-03T13:48:57;23.40;66.70
66708;DHT22;53622;0.000;0.000;2022-10-03T13:51:40;23.40;66.60
66708;DHT22;53622;0.000;0.000;2022-10-03T13:54:16;23.40;66.60
66708;DHT22;53622;0.000;0.000;2022-10-03T13:56:54;23.40;66.60
66708;DHT22;53622;0.000;0.000;2022-10-03T13:59:41;23.40;66.80
66708;DHT22;53622;0.000;0.000;2022-10-03T14:05:27;23.40;66.90
66708;DHT22;53622;0.000;0.000;2022-10-03T14:08:08;23.40;66.80
66708;DHT22;53622;0.000;0.000;2022-10-03T14:11:13;23.40;66.90
66708;DHT22;53622;0.000;0.000;2022-10-03T14:16:50;23.40;67.00
66708;DHT22;53622;0.000;0.000;2022-10-03T14:19:30;23.40;67.00
66708;DHT22;53622;0.000;0.000;2022-10-03T14:22:14;23.40;67.00
66708;DHT22;53622;0.000;0.000;2022-10-03T14:25:08;23.40;67.20
66708;DHT22;53622;0.000;0.000;2022-10-03T14:27:48;23.40;67.30
66708;DHT22;53622;0.000;0.000;2022-10-03T14:30:20;23.40;67.20
66708;DHT22;53622;0.000;0.000;2022-10-03T14:32:58;23.40;67.40
66708;DHT22;53622;0.000;0.000;2022-10-03T14:35:37;23.40;67.30
66708;DHT22;53622;0.000;0.000;2022-10-03T14:38:18;23.40;67.20
66708;DHT22;53622;0.000;0.000;2022-10-03T14:40:56;23.40;67.30
66708;DHT22;53622;0.000;0.000;2022-10-03T14:43:34;23.40;67.30
66708;DHT22;53622;0.000;0.000;2022-10-03T14:46:09;23.40;67.10
66708;DHT22;53622;0.000;0.000;2022-10-03T14:48:40;23.40;67.20
66708;DHT22;53622;0.000;0.000;2022-10-03T14:51:15;23.40;67.20
66708;DHT22;53622;0.000;0.000;2022-10-03T14:53:52;23.40;67.10
66708;DHT22;53622;0.000;0.000;2022-10-03T14:56:25;23.40;67.00
66708;DHT22;53622;0.000;0.000;2022-10-03T14:58:56;23.40;67.50
66708;DHT22;53622;0.000;0.000;2022-10-03T15:01:28;23.40;67.10
66708;DHT22;53622;0.000;0.000;2022-10-03T15:04:02;23.40;67.20
66708;DHT22;53622;0.000;0.000;2022-10-03T15:06:36;23.40;67.10
66708;DHT22;53622;0.000;0.000;2022-10-03T15:09:20;23.40;67.00
66708;DHT22;53622;0.000;0.000;2022-10-03T15:11:55;23.40;67.10
66708;DHT22;53622;0.000;0.000;2022-10-03T15:14:28;23.40;67.00
66708;DHT22;53622;0.000;0.000;2022-10-03T15:17:02;23.40;67.00
66708;DHT22;53622;0.000;0.000;2022-10-03T15:19:36;23.40;67.00
66708;DHT22;53622;0.000;0.000;2022-10-03T15:22:21;23.40;67.00
66708;DHT22;53622;0.000;0.000;2022-10-03T15:24:53;23.40;66.90
66708;DHT22;53622;0.000;0.000;2022-10-03T15:27:25;23.40;66.90
66708;DHT22;53622;0.000;0.000;2022-10-03T15:29:58;23.40;67.00
66708;DHT22;53622;0.000;0.000;2022-10-03T15:32:35;23.40;67.00
66708;DHT22;53622;0.000;0.000;2022-10-03T15:35:13;23.40;66.90
66708;DHT22;53622;0.000;0.000;2022-10-03T15:37:44;23.40;66.80
66708;DHT22;53622;0.000;0.000;2022-10-03T15:40:23;23.40;67.70
66708;DHT22;53622;0.000;0.000;2022-10-03T15:43:27;23.40;66.90
66708;DHT22;53622;0.000;0.000;2022-10-03T15:46:01;23.40;66.90
66708;DHT22;53622;0.000;0.000;2022-10-03T15:48:33;23.40;67.00
66708;DHT22;53622;0.000;0.000;2022-10-03T15:51:04;23.40;67.10
66708;DHT22;53622;0.000;0.000;2022-10-03T15:53:35;23.40;67.00
66708;DHT22;53622;0.000;0.000;2022-10-03T15:56:09;23.40;67.00
66708;DHT22;53622;0.000;0.000;2022-10-03T15:58:47;23.40;67.00
66708;DHT22;53622;0.000;0.000;2022-10-03T16:01:20;23.40;67.00
66708;DHT22;53622;0.000;0.000;2022-10-03T16:03:53;23.40;67.00
66708;DHT22;53622;0.000;0.000;2022-10-03T16:06:29;23.40;67.00
66708;DHT22;53622;0.000;0.000;2022-10-03T16:09:06;23.40;66.90
66708;DHT22;53622;0.000;0.000;2022-10-03T16:11:45;23.40;67.00
66708;DHT22;53622;0.000;0.000;2022-10-03T16:14:23;23.40;67.40
66708;DHT22;53622;0.000;0.000;2022-10-03T16:16:56;23.40;68.10
66708;DHT22;53622;0.000;0.000;2022-10-03T16:19:35;23.40;67.30
66708;DHT22;53622;0.000;0.000;2022-10-03T16:22:15;23.40;67.20
66708;DHT22;53622;0.000;0.000;2022-10-03T16:25:00;23.40;67.30
66708;DHT22;53622;0.000;0.000;2022-10-03T16:27:32;23.40;67.30
66708;DHT22;53622;0.000;0.000;2022-10-03T16:30:20;23.40;67.40
66708;DHT22;53622;0.000;0.000;2022-10-03T16:33:01;23.40;67.30
66708;DHT22;53622;0.000;0.000;2022-10-03T16:35:37;23.40;67.50
66708;DHT22;53622;0.000;0.000;2022-10-03T16:38:18;23.40;67.80
66708;DHT22;53622;0.000;0.000;2022-10-03T16:40:54;23.40;67.90
66708;DHT22;53622;0.000;0.000;2022-10-03T16:43:24;23.30;67.80
66708;DHT22;53622;0.000;0.000;2022-10-03T16:45:59;23.40;67.80
66708;DHT22;53622;0.000;0.000;2022-10-03T16:48:31;23.40;67.80
66708;DHT22;53622;0.000;0.000;2022-10-03T16:51:21;23.40;67.70
66708;DHT22;53622;0.000;0.000;2022-10-03T16:53:53;23.40;67.60
66708;DHT22;53622;0.000;0.000;2022-10-03T16:56:26;23.40;67.50
66708;DHT22;53622;0.000;0.000;2022-10-03T16:59:02;23.40;67.50
66708;DHT22;53622;0.000;0.000;2022-10-03T17:01:38;23.40;67.50
66708;DHT22;53622;0.000;0.000;2022-10-03T17:04:16;23.40;67.60
66708;DHT22;53622;0.000;0.000;2022-10-03T17:06:50;23.40;67.50
66708;DHT22;53622;0.000;0.000;2022-10-03T17:09:32;23.40;67.50
66708;DHT22;53622;0.000;0.000;2022-10-03T17:12:07;23.40;67.60
66708;DHT22;53622;0.000;0.000;2022-10-03T17:14:41;23.40;67.70
66708;DHT22;53622;0.000;0.000;2022-10-03T17:17:23;23.40;67.80
66708;DHT22;53622;0.000;0.000;2022-10-03T17:19:58;23.40;67.90
66708;DHT22;53622;0.000;0.000;2022-10-03T17:22:35;23.40;68.10
66708;DHT22;53622;0.000;0.000;2022-10-03T17:25:07;23.40;68.30
66708;DHT22;53622;0.000;0.000;2022-10-03T17:27:57;23.40;68.40
66708;DHT22;53622;0.000;0.000;2022-10-03T17:30:32;23.40;68.50
66708;DHT22;53622;0.000;0.000;2022-10-03T17:33:07;23.40;69.00
66708;DHT22;53622;0.000;0.000;2022-10-03T17:35:44;23.40;69.10
66708;DHT22;53622;0.000;0.000;2022-10-03T17:38:25;23.40;69.10
66708;DHT22;53622;0.000;0.000;2022-10-03T17:41:20;23.40;69.20
66708;DHT22;53622;0.000;0.000;2022-10-03T17:44:01;23.40;69.20
66708;DHT22;53622;0.000;0.000;2022-10-03T17:46:39;23.40;69.10
66708;DHT22;53622;0.000;0.000;2022-10-03T17:49:19;23.40;69.40
66708;DHT22;53622;0.000;0.000;2022-10-03T17:51:52;23.50;69.30
66708;DHT22;53622;0.000;0.000;2022-10-03T17:54:26;23.40;69.00
66708;DHT22;53622;0.000;0.000;2022-10-03T17:57:00;23.40;69.10
66708;DHT22;53622;0.000;0.000;2022-10-03T17:59:36;23.40;68.90
66708;DHT22;53622;0.000;0.000;2022-10-03T18:02:18;23.40;68.90
66708;DHT22;53622;0.000;0.000;2022-10-03T18:05:02;23.50;68.90
66708;DHT22;53622;0.000;0.000;2022-10-03T18:07:35;23.40;68.30
66708;DHT22;53622;0.000;0.000;2022-10-03T18:10:17;23.40;68.90
66708;DHT22;53622;0.000;0.000;2022-10-03T18:12:49;23.50;69.00
66708;DHT22;53622;0.000;0.000;2022-10-03T18:15:41;23.40;68.80
66708;DHT22;53622;0.000;0.000;2022-10-03T18:18:42;23.50;68.80
66708;DHT22;53622;0.000;0.000;2022-10-03T18:21:25;23.50;68.70
66708;DHT22;53622;0.000;0.000;2022-10-03T18:24:14;23.40;68.80
66708;DHT22;53622;0.000;0.000;2022-10-03T18:26:52;23.40;68.60
66708;DHT22;53622;0.000;0.000;2022-10-03T18:29:28;23.40;68.60
66708;DHT22;53622;0.000;0.000;2022-10-03T18:32:10;23.40;68.70
66708;DHT22;53622;0.000;0.000;2022-10-03T18:34:45;23.40;68.60
66708;DHT22;53622;0.000;0.000;2022-10-03T18:40:19;23.50;68.50
66708;DHT22;53622;0.000;0.000;2022-10-03T18:42:51;23.40;68.50
66708;DHT22;53622;0.000;0.000;2022-10-03T18:45:24;23.40;69.10
66708;DHT22;53622;0.000;0.000;2022-10-03T18:48:00;23.40;68.40
66708;DHT22;53622;0.000;0.000;2022-10-03T18:50:40;23.40;68.50
66708;DHT22;53622;0.000;0.000;2022-10-03T18:53:16;23.40;68.60
66708;DHT22;53622;0.000;0.000;2022-10-03T18:55:54;23.40;68.50
66708;DHT22;53622;0.000;0.000;2022-10-03T18:58:27;23.40;68.50
66708;DHT22;53622;0.000;0.000;2022-10-03T19:01:01;23.50;68.60
66708;DHT22;53622;0.000;0.000;2022-10-03T19:03:35;23.50;68.40
66708;DHT22;53622;0.000;0.000;2022-10-03T19:06:12;23.50;68.40
66708;DHT22;53622;0.000;0.000;2022-10-03T19:08:49;23.50;68.30
66708;DHT22;53622;0.000;0.000;2022-10-03T19:11:25;23.50;68.70
66708;DHT22;53622;0.000;0.000;2022-10-03T19:14:03;23.50;68.50
66708;DHT22;53622;0.000;0.000;2022-10-03T19:17:00;23.50;68.50
66708;DHT22;53622;0.000;0.000;2022-10-03T19:19:46;23.50;68.20
66708;DHT22;53622;0.000;0.000;2022-10-03T19:22:29;23.50;68.20
66708;DHT22;53622;0.000;0.000;2022-10-03T19:25:01;23.50;68.20
66708;DHT22;53622;0.000;0.000;2022-10-03T19:27:43;23.50;68.10
66708;DHT22;53622;0.000;0.000;2022-10-03T19:30:18;23.50;68.00
66708;DHT22;53622;0.000;0.000;2022-10-03T19:32:53;23.50;67.90
66708;DHT22;53622;0.000;0.000;2022-10-03T19:35:24;23.50;67.90
66708;DHT22;53622;0.000;0.000;2022-10-03T19:37:56;23.50;67.80
66708;DHT22;53622;0.000;0.000;2022-10-03T19:40:50;23.50;67.90
66708;DHT22;53622;0.000;0.000;2022-10-03T19:43:49;23.50;67.90
66708;DHT22;53622;0.000;0.000;2022-10-03T19:46:48;23.50;67.80
66708;DHT22;53622;0.000;0.000;2022-10-03T19:49:35;23.40;67.80
66708;DHT22;53622;0.000;0.000;2022-10-03T19:52:28;23.40;67.90
66708;DHT22;53622;0.000;0.000;2022-10-03T19:55:08;23.40;67.80
66708;DHT22;53622;0.000;0.000;2022-10-03T19:57:46;23.40;67.80
66708;DHT22;53622;0.000;0.000;2022-10-03T20:00:27;23.40;67.80
66708;DHT22;53622;0.000;0.000;2022-10-03T20:03:05;23.40;67.70
66708;DHT22;53622;0.000;0.000;2022-10-03T20:05:45;23.40;67.60
66708;DHT22;53622;0.000;0.000;2022-10-03T20:08:22;23.40;67.60
66708;DHT22;53622;0.000;0.000;2022-10-03T20:11:03;23.40;67.60
66708;DHT22;53622;0.000;0.000;2022-10-03T20:13:34;23.40;67.50
66708;DHT22;53622;0.000;0.000;2022-10-03T20:16:13;23.40;67.50
66708;DHT22;53622;0.000;0.000;2022-10-03T20:18:45;23.40;67.50
66708;DHT22;53622;0.000;0.000;2022-10-03T20:21:18;23.40;67.40
66708;DHT22;53622;0.000;0.000;2022-10-03T20:23:48;23.40;68.20
66708;DHT22;53622;0.000;0.000;2022-10-03T20:26:24;23.40;67.40
66708;DHT22;53622;0.000;0.000;2022-10-03T20:29:21;23.40;67.30
66708;DHT22;53622;0.000;0.000;2022-10-03T20:31:59;23.40;67.40
66708;DHT22;53622;0.000;0.000;2022-10-03T20:34:30;23.40;67.60
66708;DHT22;53622;0.000;0.000;2022-10-03T20:37:21;23.40;67.50
66708;DHT22;53622;0.000;0.000;2022-10-03T20:40:00;23.40;67.40
66708;DHT22;53622;0.000;0.000;2022-10-03T20:42:31;23.40;67.50
66708;DHT22;53622;0.000;0.000;2022-10-03T20:45:01;23.40;67.40
66708;DHT22;53622;0.000;0.000;2022-10-03T20:47:52;23.40;67.30
66708;DHT22;53622;0.000;0.000;2022-10-03T20:50:26;23.40;67.30